Tha Wang Pha, Thailand

2:31 PM ICT on August 28, 2015 (GMT +0700)
Nan | | Change Station
CLOSE
Current Station
Airport
Location: Nan,
Elevation: 659 ft
Nearby Weather Stations

Elev 659 ft 18.77 °N, 100.76 °E | Updated 31 minutes ago

Rain
Rain
90 °F
Feels Like 95 °F
N
5
Wind Variable Wind from South

Today
High -- | Low -- °F
--% Chance of Precip.
Yesterday
High -- | Low -- °F
Precip. -- in
6:00 AM 6:35 PM
Waxing Gibbous, 97% visible
Pressure 29.71 in
Visibility 6.2 miles
Clouds Scattered Clouds 2000 ft
Scattered Clouds 2200 ft
Mostly Cloudy 10000 ft
Mostly Cloudy 30000 ft
Heat Index 95 °F
Dew Point 70 °F
Humidity 52%
Rainfall 0.00 in
Snow Depth Not available.
UV 8 out of 12
Pollen Not available.
Air Quality Not available.
Flu Activity Not available.
METAR VTCN 280700Z 19004KT 100V270 9999 VCSHRA SCT020TCU SCT022 BKN100 BKN300 32/21 Q1006 A2972
Pressure 29.71 in
Visibility 6.2 miles
Clouds Scattered Clouds 2000 ft
Scattered Clouds 2200 ft
Mostly Cloudy 10000 ft
Mostly Cloudy 30000 ft
Heat Index 95 °F
Dew Point 70 °F
Humidity 52%
Rainfall 0.00 in
Snow Depth Not available.
UV 8 out of 12
Pollen Not available.
Air Quality Not available.
Flu Activity Not available.
METAR VTCN 280700Z 19004KT 100V270 9999 VCSHRA SCT020TCU SCT022 BKN100 BKN300 32/21 Q1006 A2972

10-Day Weather Forecast

×

Almanac

Astronomy

Aug. 28, 2015 Rise Set
Actual Time
Civil Twilight
Nautical Twilight
Astronomical Twilight
Moon
Length of Visible Light
Length of Day
Tomorrow will be .
, % of the Moon is Illuminated

Today's Extremes

Country Highs Country Lows

Community

WunderPhotos

Upload Photos

1,850,344 photos uploaded!

WunderBlogs® & News

Nearby

Air Quality

  Air Quality AQ Index Pollutant
Not available.

Snow Depth

Station Depth Elevation

Earthquake Activity

City Distance Mag. Time & Date
Minimum magnitude displayed is 2.5.

Coastal Water Temperatures

Place Temperature

Stations

Nearby Weather Stations

Station Location Temp. Windchill Dew Point Humidity Wind Precip. Elev Updated Type